sensor_id;sensor_type;location;lat;lon;timestamp;pressure;altitude;pressure_sealevel;temperature;humidity
9525;BME280;15940;48.734;9.112;2023-09-18T00:02:23;96004.34;;;20.11;70.25
9525;BME280;15940;48.734;9.112;2023-09-18T00:04:52;96004.19;;;20.09;70.65
9525;BME280;15940;48.734;9.112;2023-09-18T00:07:19;96007.81;;;20.12;70.65
9525;BME280;15940;48.734;9.112;2023-09-18T00:09:46;96009.84;;;20.11;70.72
9525;BME280;15940;48.734;9.112;2023-09-18T00:12:14;95999.97;;;20.08;70.60
9525;BME280;15940;48.734;9.112;2023-09-18T00:14:41;96005.31;;;20.06;70.75
9525;BME280;15940;48.734;9.112;2023-09-18T00:17:08;95999.22;;;20.08;70.71
9525;BME280;15940;48.734;9.112;2023-09-18T00:19:35;95992.44;;;20.09;70.50
9525;BME280;15940;48.734;9.112;2023-09-18T00:22:03;95989.88;;;20.11;70.18
9525;BME280;15940;48.734;9.112;2023-09-18T00:24:30;95977.00;;;20.13;70.15
9525;BME280;15940;48.734;9.112;2023-09-18T00:26:57;95970.78;;;20.13;70.03
9525;BME280;15940;48.734;9.112;2023-09-18T00:29:24;95972.81;;;20.12;70.20
9525;BME280;15940;48.734;9.112;2023-09-18T00:31:51;95967.69;;;20.09;70.27
9525;BME280;15940;48.734;9.112;2023-09-18T00:34:18;95966.97;;;20.08;70.46
9525;BME280;15940;48.734;9.112;2023-09-18T00:36:45;95964.22;;;20.08;70.62
9525;BME280;15940;48.734;9.112;2023-09-18T00:39:13;95971.34;;;20.11;70.57
9525;BME280;15940;48.734;9.112;2023-09-18T00:41:41;95966.59;;;20.12;70.45
9525;BME280;15940;48.734;9.112;2023-09-18T00:44:08;95962.69;;;20.15;70.24
9525;BME280;15940;48.734;9.112;2023-09-18T00:46:35;95964.31;;;20.18;70.04
9525;BME280;15940;48.734;9.112;2023-09-18T00:49:03;95959.72;;;20.20;70.16
9525;BME280;15940;48.734;9.112;2023-09-18T00:51:30;95961.00;;;20.19;70.02
9525;BME280;15940;48.734;9.112;2023-09-18T00:53:57;95957.13;;;20.22;70.20
9525;BME280;15940;48.734;9.112;2023-09-18T00:56:26;95957.13;;;20.22;70.20
9525;BME280;15940;48.734;9.112;2023-09-18T00:58:53;95953.66;;;20.22;70.22
9525;BME280;15940;48.734;9.112;2023-09-18T01:01:20;95957.13;;;20.22;70.22
9525;BME280;15940;48.734;9.112;2023-09-18T01:03:49;95964.97;;;20.26;70.21
9525;BME280;15940;48.734;9.112;2023-09-18T01:06:17;95960.19;;;20.26;70.32
9525;BME280;15940;48.734;9.112;2023-09-18T01:08:44;95948.06;;;20.30;70.02
9525;BME280;15940;48.734;9.112;2023-09-18T01:11:19;95949.69;;;20.33;69.74
9525;BME280;15940;48.734;9.112;2023-09-18T01:13:56;95954.22;;;20.38;69.55
9525;BME280;15940;48.734;9.112;2023-09-18T01:16:34;95946.13;;;20.40;69.13
9525;BME280;15940;48.734;9.112;2023-09-18T01:19:03;95955.25;;;20.42;69.14
9525;BME280;15940;48.734;9.112;2023-09-18T01:21:30;95962.97;;;20.44;69.53
9525;BME280;15940;48.734;9.112;2023-09-18T01:23:58;95958.59;;;20.41;69.62
9525;BME280;15940;48.734;9.112;2023-09-18T01:26:25;95959.88;;;20.40;69.74
9525;BME280;15940;48.734;9.112;2023-09-18T01:28:52;95953.66;;;20.39;69.56
9525;BME280;15940;48.734;9.112;2023-09-18T01:31:20;95946.69;;;20.38;69.59
9525;BME280;15940;48.734;9.112;2023-09-18T01:33:47;95954.22;;;20.38;69.54
9525;BME280;15940;48.734;9.112;2023-09-18T01:36:16;95953.06;;;20.41;69.39
9525;BME280;15940;48.734;9.112;2023-09-18T01:38:44;95961.50;;;20.43;69.47
9525;BME280;15940;48.734;9.112;2023-09-18T01:41:14;95959.97;;;20.49;69.05
9525;BME280;15940;48.734;9.112;2023-09-18T01:46:07;96024.59;;;20.93;66.33
9525;BME280;15940;48.734;9.112;2023-09-18T01:48:35;96024.84;;;21.04;65.79
9525;BME280;15940;48.734;9.112;2023-09-18T01:51:02;96012.97;;;21.11;64.74
9525;BME280;15940;48.734;9.112;2023-09-18T01:53:29;96000.66;;;21.13;65.08
9525;BME280;15940;48.734;9.112;2023-09-18T01:55:56;96003.88;;;21.19;65.62
9525;BME280;15940;48.734;9.112;2023-09-18T01:58:24;95997.19;;;21.12;69.08
9525;BME280;15940;48.734;9.112;2023-09-18T02:00:51;95967.72;;;20.61;71.81
9525;BME280;15940;48.734;9.112;2023-09-18T02:03:18;95942.81;;;20.24;75.79
9525;BME280;15940;48.734;9.112;2023-09-18T02:05:46;95908.69;;;19.92;76.15
9525;BME280;15940;48.734;9.112;2023-09-18T02:08:13;95863.09;;;19.72;78.95
9525;BME280;15940;48.734;9.112;2023-09-18T02:10:40;95857.38;;;19.53;80.91
9525;BME280;15940;48.734;9.112;2023-09-18T02:13:07;95893.03;;;19.35;83.30
9525;BME280;15940;48.734;9.112;2023-09-18T02:15:37;95886.03;;;19.17;83.35
9525;BME280;15940;48.734;9.112;2023-09-18T02:18:04;95895.63;;;19.08;83.86
9525;BME280;15940;48.734;9.112;2023-09-18T02:20:31;95908.50;;;18.98;84.27
9525;BME280;15940;48.734;9.112;2023-09-18T02:23:04;95888.44;;;18.88;84.81
9525;BME280;15940;48.734;9.112;2023-09-18T02:25:31;95894.50;;;18.87;85.71
9525;BME280;15940;48.734;9.112;2023-09-18T02:27:58;95899.47;;;18.80;85.44
9525;BME280;15940;48.734;9.112;2023-09-18T02:30:25;95897.28;;;18.79;86.00
9525;BME280;15940;48.734;9.112;2023-09-18T02:32:53;95898.22;;;18.74;86.19
9525;BME280;15940;48.734;9.112;2023-09-18T02:35:21;95907.34;;;18.76;84.08
9525;BME280;15940;48.734;9.112;2023-09-18T02:37:48;95907.53;;;18.78;82.38
9525;BME280;15940;48.734;9.112;2023-09-18T02:40:15;95914.75;;;18.91;78.80
9525;BME280;15940;48.734;9.112;2023-09-18T02:42:41;95915.25;;;19.05;79.96
9525;BME280;15940;48.734;9.112;2023-09-18T02:45:09;95912.09;;;19.08;79.15
9525;BME280;15940;48.734;9.112;2023-09-18T02:47:36;95922.19;;;19.06;79.56
9525;BME280;15940;48.734;9.112;2023-09-18T02:50:08;95917.88;;;18.95;80.48
9525;BME280;15940;48.734;9.112;2023-09-18T02:52:37;95916.63;;;18.89;80.78
9525;BME280;15940;48.734;9.112;2023-09-18T02:55:04;95912.06;;;18.83;79.69
9525;BME280;15940;48.734;9.112;2023-09-18T02:57:31;95915.19;;;18.80;80.89
9525;BME280;15940;48.734;9.112;2023-09-18T02:59:58;95912.66;;;18.74;81.43
9525;BME280;15940;48.734;9.112;2023-09-18T03:02:25;95912.50;;;18.72;81.76
9525;BME280;15940;48.734;9.112;2023-09-18T03:04:52;95907.22;;;18.67;81.90
9525;BME280;15940;48.734;9.112;2023-09-18T03:07:20;95904.47;;;18.67;81.99
9525;BME280;15940;48.734;9.112;2023-09-18T03:09:47;95896.41;;;18.69;82.17
9525;BME280;15940;48.734;9.112;2023-09-18T03:12:14;95903.19;;;18.68;81.68
9525;BME280;15940;48.734;9.112;2023-09-18T03:14:41;95891.50;;;18.60;82.76
9525;BME280;15940;48.734;9.112;2023-09-18T03:17:08;95894.63;;;18.56;82.45
9525;BME280;15940;48.734;9.112;2023-09-18T03:19:36;95896.28;;;18.51;82.10
9525;BME280;15940;48.734;9.112;2023-09-18T03:22:03;95897.56;;;18.50;83.20
9525;BME280;15940;48.734;9.112;2023-09-18T03:24:31;95902.91;;;18.48;82.70
9525;BME280;15940;48.734;9.112;2023-09-18T03:26:58;95914.22;;;18.45;81.55
9525;BME280;15940;48.734;9.112;2023-09-18T03:29:25;95927.94;;;18.45;83.00
9525;BME280;15940;48.734;9.112;2023-09-18T03:31:52;95926.88;;;18.40;82.76
9525;BME280;15940;48.734;9.112;2023-09-18T03:34:19;95920.84;;;18.42;82.56
9525;BME280;15940;48.734;9.112;2023-09-18T03:36:46;95925.19;;;18.45;83.46
9525;BME280;15940;48.734;9.112;2023-09-18T03:39:12;95937.63;;;18.46;83.20
9525;BME280;15940;48.734;9.112;2023-09-18T03:41:41;95958.84;;;18.45;83.87
9525;BME280;15940;48.734;9.112;2023-09-18T03:44:07;95968.50;;;18.46;84.04
9525;BME280;15940;48.734;9.112;2023-09-18T03:46:35;95993.41;;;18.48;83.91
9525;BME280;15940;48.734;9.112;2023-09-18T03:49:02;96006.72;;;18.52;82.95
9525;BME280;15940;48.734;9.112;2023-09-18T03:51:29;96023.72;;;18.58;83.15
9525;BME280;15940;48.734;9.112;2023-09-18T03:53:57;96028.66;;;18.67;80.98
9525;BME280;15940;48.734;9.112;2023-09-18T03:56:24;96033.91;;;18.73;81.04
9525;BME280;15940;48.734;9.112;2023-09-18T03:58:52;96043.03;;;18.83;80.37
9525;BME280;15940;48.734;9.112;2023-09-18T04:01:19;96039.00;;;18.84;80.30
9525;BME280;15940;48.734;9.112;2023-09-18T04:03:46;96029.47;;;18.85;79.68
9525;BME280;15940;48.734;9.112;2023-09-18T04:06:13;96025.28;;;18.84;80.52
9525;BME280;15940;48.734;9.112;2023-09-18T04:08:40;96011.19;;;18.88;80.54
9525;BME280;15940;48.734;9.112;2023-09-18T04:11:07;96006.06;;;18.84;80.12
9525;BME280;15940;48.734;9.112;2023-09-18T04:13:35;96004.44;;;18.81;80.69
9525;BME280;15940;48.734;9.112;2023-09-18T04:16:04;95983.56;;;18.86;80.91
9525;BME280;15940;48.734;9.112;2023-09-18T04:18:31;95968.94;;;18.83;80.26
9525;BME280;15940;48.734;9.112;2023-09-18T04:20:58;95962.56;;;18.80;79.66
9525;BME280;15940;48.734;9.112;2023-09-18T04:23:26;95960.00;;;18.82;79.89
9525;BME280;15940;48.734;9.112;2023-09-18T04:25:54;95952.66;;;18.85;80.42
9525;BME280;15940;48.734;9.112;2023-09-18T04:28:23;95942.94;;;18.92;78.86
9525;BME280;15940;48.734;9.112;2023-09-18T04:30:50;95936.88;;;18.93;79.18
9525;BME280;15940;48.734;9.112;2023-09-18T04:33:19;95905.75;;;18.98;78.42
9525;BME280;15940;48.734;9.112;2023-09-18T04:35:47;95894.06;;;18.98;79.28
9525;BME280;15940;48.734;9.112;2023-09-18T04:38:14;95899.91;;;18.94;80.39
9525;BME280;15940;48.734;9.112;2023-09-18T04:40:42;95901.59;;;18.90;80.63
9525;BME280;15940;48.734;9.112;2023-09-18T04:43:09;95898.50;;;18.86;80.92
9525;BME280;15940;48.734;9.112;2023-09-18T04:45:36;95891.94;;;18.81;80.96
9525;BME280;15940;48.734;9.112;2023-09-18T04:48:04;95894.13;;;18.82;81.82
9525;BME280;15940;48.734;9.112;2023-09-18T04:50:32;95898.38;;;18.76;82.22
9525;BME280;15940;48.734;9.112;2023-09-18T04:53:00;95911.03;;;18.71;82.38
9525;BME280;15940;48.734;9.112;2023-09-18T04:55:28;95921.66;;;18.67;82.47
9525;BME280;15940;48.734;9.112;2023-09-18T04:57:54;95922.56;;;18.62;82.81
9525;BME280;15940;48.734;9.112;2023-09-18T05:00:23;95937.97;;;18.58;83.22
9525;BME280;15940;48.734;9.112;2023-09-18T05:02:52;95935.41;;;18.52;82.94
9525;BME280;15940;48.734;9.112;2023-09-18T05:05:19;95929.75;;;18.50;83.08
9525;BME280;15940;48.734;9.112;2023-09-18T05:07:47;95932.66;;;18.52;84.03
9525;BME280;15940;48.734;9.112;2023-09-18T05:10:14;95915.66;;;18.53;83.61
9525;BME280;15940;48.734;9.112;2023-09-18T05:12:41;95920.25;;;18.51;83.72
9525;BME280;15940;48.734;9.112;2023-09-18T05:15:09;95918.78;;;18.50;83.27
9525;BME280;15940;48.734;9.112;2023-09-18T05:17:42;95935.97;;;18.50;82.77
9525;BME280;15940;48.734;9.112;2023-09-18T05:20:11;95944.75;;;18.49;83.00
9525;BME280;15940;48.734;9.112;2023-09-18T05:22:41;95966.13;;;18.50;83.29
9525;BME280;15940;48.734;9.112;2023-09-18T05:25:11;95975.81;;;18.51;83.34
9525;BME280;15940;48.734;9.112;2023-09-18T05:27:38;95943.84;;;18.46;82.71
9525;BME280;15940;48.734;9.112;2023-09-18T05:30:12;95949.31;;;18.46;83.26
9525;BME280;15940;48.734;9.112;2023-09-18T05:32:41;95930.69;;;18.45;83.38
9525;BME280;15940;48.734;9.112;2023-09-18T05:35:08;95931.81;;;18.42;83.64
9525;BME280;15940;48.734;9.112;2023-09-18T05:37:38;95942.78;;;18.42;83.76
9525;BME280;15940;48.734;9.112;2023-09-18T05:40:08;95947.34;;;18.39;84.01
9525;BME280;15940;48.734;9.112;2023-09-18T05:42:37;95959.22;;;18.42;84.08
9525;BME280;15940;48.734;9.112;2023-09-18T05:45:05;95962.53;;;18.40;84.16
9525;BME280;15940;48.734;9.112;2023-09-18T05:47:32;95951.38;;;18.38;84.33
9525;BME280;15940;48.734;9.112;2023-09-18T05:50:01;95950.81;;;18.40;84.44
9525;BME280;15940;48.734;9.112;2023-09-18T05:52:29;95946.78;;;18.41;84.52
9525;BME280;15940;48.734;9.112;2023-09-18T05:54:56;95946.22;;;18.42;84.50
9525;BME280;15940;48.734;9.112;2023-09-18T05:57:23;95939.84;;;18.40;84.48
9525;BME280;15940;48.734;9.112;2023-09-18T05:59:51;95942.78;;;18.42;84.26
9525;BME280;15940;48.734;9.112;2023-09-18T06:02:18;95938.91;;;18.45;84.15
9525;BME280;15940;48.734;9.112;2023-09-18T06:04:46;95940.91;;;18.44;84.16
9525;BME280;15940;48.734;9.112;2023-09-18T06:07:13;95937.63;;;18.46;84.31
9525;BME280;15940;48.734;9.112;2023-09-18T06:09:40;95936.00;;;18.43;84.55
9525;BME280;15940;48.734;9.112;2023-09-18T06:12:08;95915.75;;;18.38;84.97
9525;BME280;15940;48.734;9.112;2023-09-18T06:14:35;95928.53;;;18.36;85.05
9525;BME280;15940;48.734;9.112;2023-09-18T06:17:05;95929.81;;;18.35;85.25
9525;BME280;15940;48.734;9.112;2023-09-18T06:19:32;95932.38;;;18.33;86.07
9525;BME280;15940;48.734;9.112;2023-09-18T06:21:59;95940.03;;;18.34;86.03
9525;BME280;15940;48.734;9.112;2023-09-18T06:24:26;95945.91;;;18.31;86.02
9525;BME280;15940;48.734;9.112;2023-09-18T06:26:53;95933.50;;;18.30;86.30
9525;BME280;15940;48.734;9.112;2023-09-18T06:29:20;95934.94;;;18.31;86.94
9525;BME280;15940;48.734;9.112;2023-09-18T06:31:47;95938.25;;;18.29;87.10
9525;BME280;15940;48.734;9.112;2023-09-18T06:34:15;95932.38;;;18.33;87.23
9525;BME280;15940;48.734;9.112;2023-09-18T06:36:42;95931.25;;;18.36;87.88
9525;BME280;15940;48.734;9.112;2023-09-18T06:39:09;95945.91;;;18.38;87.75
9525;BME280;15940;48.734;9.112;2023-09-18T06:41:36;95955.03;;;18.33;88.01
9525;BME280;15940;48.734;9.112;2023-09-18T06:44:03;95958.34;;;18.32;88.85
9525;BME280;15940;48.734;9.112;2023-09-18T06:46:30;95954.47;;;18.35;88.65
9525;BME280;15940;48.734;9.112;2023-09-18T06:48:57;95946.78;;;18.41;87.32
9525;BME280;15940;48.734;9.112;2023-09-18T06:51:27;95951.16;;;18.44;87.74
9525;BME280;15940;48.734;9.112;2023-09-18T06:53:54;95963.59;;;18.45;87.68
9525;BME280;15940;48.734;9.112;2023-09-18T06:56:23;95960.81;;;18.52;87.09
9525;BME280;15940;48.734;9.112;2023-09-18T06:58:50;95961.56;;;18.53;86.21
9525;BME280;15940;48.734;9.112;2023-09-18T07:01:17;95958.06;;;18.60;85.54
9525;BME280;15940;48.734;9.112;2023-09-18T07:03:44;95960.81;;;18.60;84.67
9525;BME280;15940;48.734;9.112;2023-09-18T07:06:13;95963.72;;;18.70;84.73
9525;BME280;15940;48.734;9.112;2023-09-18T07:08:43;95971.19;;;18.77;83.41
9525;BME280;15940;48.734;9.112;2023-09-18T07:11:10;95958.94;;;18.78;83.72
9525;BME280;15940;48.734;9.112;2023-09-18T07:13:37;95957.78;;;18.89;83.28
9525;BME280;15940;48.734;9.112;2023-09-18T07:16:05;95953.88;;;18.99;82.38
9525;BME280;15940;48.734;9.112;2023-09-18T07:18:32;95943.78;;;19.02;81.52
9525;BME280;15940;48.734;9.112;2023-09-18T07:21:00;95950.16;;;19.04;82.16
9525;BME280;15940;48.734;9.112;2023-09-18T07:23:27;95944.81;;;19.14;80.77
9525;BME280;15940;48.734;9.112;2023-09-18T07:25:55;95941.84;;;19.20;80.78
9525;BME280;15940;48.734;9.112;2023-09-18T07:28:23;95946.28;;;19.15;80.60
9525;BME280;15940;48.734;9.112;2023-09-18T07:30:50;95949.97;;;19.10;80.25
9525;BME280;15940;48.734;9.112;2023-09-18T07:33:17;95959.03;;;19.20;78.95
9525;BME280;15940;48.734;9.112;2023-09-18T07:35:46;95972.22;;;19.22;78.85
9525;BME280;15940;48.734;9.112;2023-09-18T07:38:14;95975.88;;;19.24;79.87
9525;BME280;15940;48.734;9.112;2023-09-18T07:40:41;95987.59;;;19.25;79.96
9525;BME280;15940;48.734;9.112;2023-09-18T07:43:09;95988.88;;;19.24;79.50
9525;BME280;15940;48.734;9.112;2023-09-18T07:45:38;96002.03;;;19.25;79.63
9525;BME280;15940;48.734;9.112;2023-09-18T07:48:06;96004.22;;;19.27;79.50
9525;BME280;15940;48.734;9.112;2023-09-18T07:50:34;96013.34;;;19.29;78.39
9525;BME280;15940;48.734;9.112;2023-09-18T07:53:01;96011.50;;;19.32;78.32
9525;BME280;15940;48.734;9.112;2023-09-18T07:55:28;95998.84;;;19.36;77.71
9525;BME280;15940;48.734;9.112;2023-09-18T07:57:55;96008.00;;;19.39;77.94
9525;BME280;15940;48.734;9.112;2023-09-18T08:00:23;96002.44;;;19.47;78.21
9525;BME280;15940;48.734;9.112;2023-09-18T08:02:54;95998.81;;;19.44;78.26
9525;BME280;15940;48.734;9.112;2023-09-18T08:05:24;96002.84;;;19.43;77.69
9525;BME280;15940;48.734;9.112;2023-09-18T08:07:53;96014.78;;;19.38;77.25
9525;BME280;15940;48.734;9.112;2023-09-18T08:10:21;96016.06;;;19.37;76.97
9525;BME280;15940;48.734;9.112;2023-09-18T08:12:48;96023.78;;;19.31;77.54
9525;BME280;15940;48.734;9.112;2023-09-18T08:15:18;96025.03;;;19.37;77.74
9525;BME280;15940;48.734;9.112;2023-09-18T08:17:46;96019.69;;;19.39;77.14
9525;BME280;15940;48.734;9.112;2023-09-18T08:20:15;96040.06;;;19.36;77.20
9525;BME280;15940;48.734;9.112;2023-09-18T08:22:42;96042.09;;;19.28;77.15
9525;BME280;15940;48.734;9.112;2023-09-18T08:25:10;96050.00;;;19.24;77.26
9525;BME280;15940;48.734;9.112;2023-09-18T08:27:38;96078.94;;;19.25;77.35
9525;BME280;15940;48.734;9.112;2023-09-18T08:30:08;96079.50;;;19.16;77.79
9525;BME280;15940;48.734;9.112;2023-09-18T08:32:36;96067.81;;;19.16;78.05
9525;BME280;15940;48.734;9.112;2023-09-18T08:35:06;96070.19;;;19.11;78.13
9525;BME280;15940;48.734;9.112;2023-09-18T08:37:33;96080.66;;;19.05;78.65
9525;BME280;15940;48.734;9.112;2023-09-18T08:40:00;96078.63;;;19.06;79.23
9525;BME280;15940;48.734;9.112;2023-09-18T08:42:36;96080.13;;;18.99;79.34
9525;BME280;15940;48.734;9.112;2023-09-18T08:45:09;96082.34;;;18.93;80.05
9525;BME280;15940;48.734;9.112;2023-09-18T08:47:38;96073.78;;;18.81;80.99
9525;BME280;15940;48.734;9.112;2023-09-18T08:50:09;96075.06;;;18.73;82.52
9525;BME280;15940;48.734;9.112;2023-09-18T08:52:36;96069.63;;;18.58;84.18
9525;BME280;15940;48.734;9.112;2023-09-18T08:55:05;96072.56;;;18.44;84.38
9525;BME280;15940;48.734;9.112;2023-09-18T08:57:34;96072.75;;;18.31;85.32
9525;BME280;15940;48.734;9.112;2023-09-18T09:00:02;96089.22;;;18.23;87.24
9525;BME280;15940;48.734;9.112;2023-09-18T09:02:33;96085.91;;;18.17;87.25
9525;BME280;15940;48.734;9.112;2023-09-18T09:05:01;96090.31;;;18.20;87.19
9525;BME280;15940;48.734;9.112;2023-09-18T09:07:29;96100.72;;;18.07;87.79
9525;BME280;15940;48.734;9.112;2023-09-18T09:09:57;96097.78;;;17.89;88.71
9525;BME280;15940;48.734;9.112;2023-09-18T09:12:50;96091.03;;;17.83;90.06
9525;BME280;15940;48.734;9.112;2023-09-18T09:15:19;96103.63;;;17.78;90.95
9525;BME280;15940;48.734;9.112;2023-09-18T09:17:46;96114.03;;;17.72;91.78
9525;BME280;15940;48.734;9.112;2023-09-18T09:20:14;96110.00;;;17.73;92.33
9525;BME280;15940;48.734;9.112;2023-09-18T09:22:45;96107.63;;;17.69;92.88
9525;BME280;15940;48.734;9.112;2023-09-18T09:25:26;96105.41;;;17.68;93.19
9525;BME280;15940;48.734;9.112;2023-09-18T09:27:54;96093.72;;;17.67;93.85
9525;BME280;15940;48.734;9.112;2023-09-18T09:30:23;96112.34;;;17.69;93.85
9525;BME280;15940;48.734;9.112;2023-09-18T09:32:54;96111.47;;;17.74;94.25
9525;BME280;15940;48.734;9.112;2023-09-18T09:35:23;96109.09;;;17.78;93.84
9525;BME280;15940;48.734;9.112;2023-09-18T09:37:56;96091.00;;;17.75;94.57
9525;BME280;15940;48.734;9.112;2023-09-18T09:40:24;96098.31;;;17.73;94.63
9525;BME280;15940;48.734;9.112;2023-09-18T09:42:53;96078.97;;;17.78;94.75
9525;BME280;15940;48.734;9.112;2023-09-18T09:45:27;96069.13;;;17.83;94.75
9525;BME280;15940;48.734;9.112;2023-09-18T09:47:57;96056.50;;;17.80;94.87
9525;BME280;15940;48.734;9.112;2023-09-18T09:50:24;96057.59;;;17.77;94.96
9525;BME280;15940;48.734;9.112;2023-09-18T09:52:54;96055.03;;;17.79;95.48
9525;BME280;15940;48.734;9.112;2023-09-18T09:55:26;96062.19;;;17.82;95.56
9525;BME280;15940;48.734;9.112;2023-09-18T09:57:56;96063.44;;;17.88;95.49
9525;BME280;15940;48.734;9.112;2023-09-18T10:00:29;96068.03;;;18.01;95.26
9525;BME280;15940;48.734;9.112;2023-09-18T10:03:01;96087.56;;;18.20;95.06
9525;BME280;15940;48.734;9.112;2023-09-18T10:05:33;96084.63;;;18.41;94.73
9525;BME280;15940;48.734;9.112;2023-09-18T10:08:06;96096.31;;;18.49;93.59
9525;BME280;15940;48.734;9.112;2023-09-18T10:10:37;96090.84;;;18.49;92.37
9525;BME280;15940;48.734;9.112;2023-09-18T10:13:11;96095.59;;;18.41;92.77
9525;BME280;15940;48.734;9.112;2023-09-18T10:15:39;96095.03;;;18.35;92.69
9525;BME280;15940;48.734;9.112;2023-09-18T10:18:18;96111.88;;;18.24;93.03
9525;BME280;15940;48.734;9.112;2023-09-18T10:20:55;96151.88;;;18.27;93.97
9525;BME280;15940;48.734;9.112;2023-09-18T10:23:42;96150.06;;;18.22;93.84
9525;BME280;15940;48.734;9.112;2023-09-18T10:26:14;96154.28;;;18.23;94.16
9525;BME280;15940;48.734;9.112;2023-09-18T10:28:47;96155.00;;;18.23;94.18
9525;BME280;15940;48.734;9.112;2023-09-18T10:31:19;96163.94;;;18.16;93.89
9525;BME280;15940;48.734;9.112;2023-09-18T10:33:48;96160.13;;;18.12;94.57
9525;BME280;15940;48.734;9.112;2023-09-18T10:36:16;96157.38;;;18.04;95.02
9525;BME280;15940;48.734;9.112;2023-09-18T10:38:46;96160.47;;;17.93;94.92
9525;BME280;15940;48.734;9.112;2023-09-18T10:41:16;96157.16;;;17.87;95.22
9525;BME280;15940;48.734;9.112;2023-09-18T10:43:44;96157.31;;;17.81;95.72
9525;BME280;15940;48.734;9.112;2023-09-18T10:46:12;96143.25;;;17.85;96.13
9525;BME280;15940;48.734;9.112;2023-09-18T10:48:40;96153.31;;;17.90;96.78
9525;BME280;15940;48.734;9.112;2023-09-18T10:51:08;96140.53;;;17.92;96.27
9525;BME280;15940;48.734;9.112;2023-09-18T10:53:35;96119.91;;;17.91;96.25
9525;BME280;15940;48.734;9.112;2023-09-18T10:56:04;96116.03;;;17.87;95.73
9525;BME280;15940;48.734;9.112;2023-09-18T10:58:32;96116.59;;;17.85;95.71
9525;BME280;15940;48.734;9.112;2023-09-18T11:01:02;96105.09;;;17.87;96.22
9525;BME280;15940;48.734;9.112;2023-09-18T11:03:33;96104.72;;;17.83;95.85
9525;BME280;15940;48.734;9.112;2023-09-18T11:06:05;96103.28;;;17.82;95.98
9525;BME280;15940;48.734;9.112;2023-09-18T11:08:34;96114.41;;;17.84;95.97
9525;BME280;15940;48.734;9.112;2023-09-18T11:11:06;96114.75;;;17.80;95.99
9525;BME280;15940;48.734;9.112;2023-09-18T11:13:39;96112.22;;;17.82;96.07
9525;BME280;15940;48.734;9.112;2023-09-18T11:16:19;96127.72;;;17.80;95.75
9525;BME280;15940;48.734;9.112;2023-09-18T11:19:09;96138.34;;;17.83;95.75
9525;BME280;15940;48.734;9.112;2023-09-18T11:21:36;96123.72;;;17.88;96.12
9525;BME280;15940;48.734;9.112;2023-09-18T11:24:05;96121.72;;;17.89;96.03
9525;BME280;15940;48.734;9.112;2023-09-18T11:26:40;96084.09;;;17.82;95.36
9525;BME280;15940;48.734;9.112;2023-09-18T11:29:10;96084.63;;;17.80;94.94
9525;BME280;15940;48.734;9.112;2023-09-18T11:31:45;96111.28;;;17.80;94.36
9525;BME280;15940;48.734;9.112;2023-09-18T11:34:15;96116.75;;;17.80;93.44
9525;BME280;15940;48.734;9.112;2023-09-18T11:36:42;96134.28;;;17.77;93.24
9525;BME280;15940;48.734;9.112;2023-09-18T11:39:09;96157.84;;;17.80;93.48
9525;BME280;15940;48.734;9.112;2023-09-18T11:41:39;96142.91;;;17.88;94.45
9525;BME280;15940;48.734;9.112;2023-09-18T11:44:31;96126.63;;;17.90;94.00
9525;BME280;15940;48.734;9.112;2023-09-18T11:46:59;96130.31;;;17.93;94.29
9525;BME280;15940;48.734;9.112;2023-09-18T11:49:27;96141.81;;;17.91;92.76
9525;BME280;15940;48.734;9.112;2023-09-18T11:51:59;96137.44;;;17.96;92.97
9525;BME280;15940;48.734;9.112;2023-09-18T11:54:27;96136.88;;;17.97;93.25
9525;BME280;15940;48.734;9.112;2023-09-18T11:56:57;96141.66;;;18.05;93.90
9525;BME280;15940;48.734;9.112;2023-09-18T11:59:38;96131.25;;;18.11;93.14
9525;BME280;15940;48.734;9.112;2023-09-18T12:02:06;96152.97;;;18.09;92.91
9525;BME280;15940;48.734;9.112;2023-09-18T12:04:34;96153.53;;;18.07;92.09
9525;BME280;15940;48.734;9.112;2023-09-18T12:07:04;96157.38;;;18.12;93.24
9525;BME280;15940;48.734;9.112;2023-09-18T12:09:31;96143.47;;;18.17;93.39
9525;BME280;15940;48.734;9.112;2023-09-18T12:12:00;96139.81;;;18.15;92.29
9525;BME280;15940;48.734;9.112;2023-09-18T12:14:31;96115.88;;;18.15;92.59
9525;BME280;15940;48.734;9.112;2023-09-18T12:17:00;96116.44;;;18.21;92.55
9525;BME280;15940;48.734;9.112;2023-09-18T12:19:28;96115.00;;;18.20;91.98
9525;BME280;15940;48.734;9.112;2023-09-18T12:21:55;96121.38;;;18.23;92.68
9525;BME280;15940;48.734;9.112;2023-09-18T12:24:23;96120.47;;;18.20;91.89
9525;BME280;15940;48.734;9.112;2023-09-18T12:26:51;96109.84;;;18.17;91.41
9525;BME280;15940;48.734;9.112;2023-09-18T12:29:21;96102.38;;;18.25;91.75
9525;BME280;15940;48.734;9.112;2023-09-18T12:31:48;96093.41;;;18.24;91.44
9525;BME280;15940;48.734;9.112;2023-09-18T12:34:19;96098.72;;;18.30;91.35
9525;BME280;15940;48.734;9.112;2023-09-18T12:36:47;96097.78;;;18.43;91.25
9525;BME280;15940;48.734;9.112;2023-09-18T12:39:15;96086.41;;;18.62;90.84
9525;BME280;15940;48.734;9.112;2023-09-18T12:41:43;96094.59;;;18.84;90.26
9525;BME280;15940;48.734;9.112;2023-09-18T12:44:11;96105.31;;;19.13;89.56
9525;BME280;15940;48.734;9.112;2023-09-18T12:46:41;96112.53;;;19.41;86.54
9525;BME280;15940;48.734;9.112;2023-09-18T12:49:19;96112.47;;;19.56;84.43
9525;BME280;15940;48.734;9.112;2023-09-18T12:51:55;96112.56;;;19.74;83.35
9525;BME280;15940;48.734;9.112;2023-09-18T12:54:37;96102.94;;;19.90;82.08
9525;BME280;15940;48.734;9.112;2023-09-18T12:57:06;96104.16;;;19.96;80.97
9525;BME280;15940;48.734;9.112;2023-09-18T12:59:35;96110.22;;;19.95;79.52
9525;BME280;15940;48.734;9.112;2023-09-18T13:02:05;96097.31;;;19.80;79.63
9525;BME280;15940;48.734;9.112;2023-09-18T13:04:32;96115.44;;;19.83;79.44
9525;BME280;15940;48.734;9.112;2023-09-18T13:07:08;96089.41;;;19.84;79.29
9525;BME280;15940;48.734;9.112;2023-09-18T13:09:35;96067.59;;;19.86;78.90
9525;BME280;15940;48.734;9.112;2023-09-18T13:12:04;96068.78;;;20.01;80.17
9525;BME280;15940;48.734;9.112;2023-09-18T13:14:58;96062.41;;;20.15;77.65
9525;BME280;15940;48.734;9.112;2023-09-18T13:17:40;96058.78;;;20.13;76.41
9525;BME280;15940;48.734;9.112;2023-09-18T13:20:15;96065.50;;;20.19;77.20
9525;BME280;15940;48.734;9.112;2023-09-18T13:22:42;96066.97;;;20.20;76.45